Terminal Aerodrome Forecast
Issued by NWS Sioux Falls, SD

Home | Current Version | Previous Version | Graphics & Text | Print | Product List | Glossary On
Versions: 1 2 3 4 5 6 7 8 9 10 11 12 13 14 15 16 17 18 19 20 21 22 23 24
000
FTUS43 KFSD 221733
TAFFSD
TAF
KFSD 221733Z 2218/2318 VRB04KT 4SM -DZ BR OVC006
     FM230100 34007KT 4SM -SN BR OVC006
     FM230900 35012KT 4SM -SN BR OVC008
     FM231600 35014G20KT 3SM -SN BR OVC008=

USA.gov is the U.S. government's official web portal to all federal, state and local government web resources and services.